sensor_id;sensor_type;location;lat;lon;timestamp;temperature;humidity
21568;DHT22;10944;42.590;12.630;2023-01-04T00:01:16;9.70;99.90
21568;DHT22;10944;42.590;12.630;2023-01-04T00:03:42;9.70;99.90
21568;DHT22;10944;42.590;12.630;2023-01-04T00:06:11;9.60;99.90
21568;DHT22;10944;42.590;12.630;2023-01-04T00:08:37;9.60;99.90
21568;DHT22;10944;42.590;12.630;2023-01-04T00:11:05;9.60;99.90
21568;DHT22;10944;42.590;12.630;2023-01-04T00:13:32;9.60;99.90
21568;DHT22;10944;42.590;12.630;2023-01-04T00:15:58;9.60;99.90
21568;DHT22;10944;42.590;12.630;2023-01-04T00:18:29;9.60;99.90
21568;DHT22;10944;42.590;12.630;2023-01-04T00:21:04;9.60;99.90
21568;DHT22;10944;42.590;12.630;2023-01-04T00:23:30;9.70;99.90
21568;DHT22;10944;42.590;12.630;2023-01-04T00:25:56;9.60;99.90
21568;DHT22;10944;42.590;12.630;2023-01-04T00:28:22;9.60;99.90
21568;DHT22;10944;42.590;12.630;2023-01-04T00:30:47;9.70;99.90
21568;DHT22;10944;42.590;12.630;2023-01-04T00:33:13;9.70;99.90
21568;DHT22;10944;42.590;12.630;2023-01-04T00:35:38;9.60;99.90
21568;DHT22;10944;42.590;12.630;2023-01-04T00:38:04;9.60;99.90
21568;DHT22;10944;42.590;12.630;2023-01-04T00:40:30;9.60;99.90
21568;DHT22;10944;42.590;12.630;2023-01-04T00:42:55;9.60;99.90
21568;DHT22;10944;42.590;12.630;2023-01-04T00:45:21;9.60;99.90
21568;DHT22;10944;42.590;12.630;2023-01-04T00:47:47;9.60;99.90
21568;DHT22;10944;42.590;12.630;2023-01-04T00:50:12;9.50;99.90
21568;DHT22;10944;42.590;12.630;2023-01-04T00:52:38;9.50;99.90
21568;DHT22;10944;42.590;12.630;2023-01-04T00:55:04;9.50;99.90
21568;DHT22;10944;42.590;12.630;2023-01-04T00:57:30;9.40;99.90
21568;DHT22;10944;42.590;12.630;2023-01-04T00:59:55;9.40;99.90
21568;DHT22;10944;42.590;12.630;2023-01-04T01:02:21;9.40;99.90
21568;DHT22;10944;42.590;12.630;2023-01-04T01:04:46;9.30;99.90
21568;DHT22;10944;42.590;12.630;2023-01-04T01:07:12;9.30;99.90
21568;DHT22;10944;42.590;12.630;2023-01-04T01:09:38;9.30;99.90
21568;DHT22;10944;42.590;12.630;2023-01-04T01:12:04;9.20;99.90
21568;DHT22;10944;42.590;12.630;2023-01-04T01:14:29;9.20;99.90
21568;DHT22;10944;42.590;12.630;2023-01-04T01:16:55;9.10;99.90
21568;DHT22;10944;42.590;12.630;2023-01-04T01:19:21;9.10;99.90
21568;DHT22;10944;42.590;12.630;2023-01-04T01:21:46;9.10;99.90
21568;DHT22;10944;42.590;12.630;2023-01-04T01:24:17;9.10;99.90
21568;DHT22;10944;42.590;12.630;2023-01-04T01:26:43;9.20;99.90
21568;DHT22;10944;42.590;12.630;2023-01-04T01:29:09;9.20;99.90
21568;DHT22;10944;42.590;12.630;2023-01-04T01:31:34;9.20;99.90
21568;DHT22;10944;42.590;12.630;2023-01-04T01:34:01;9.30;99.90
21568;DHT22;10944;42.590;12.630;2023-01-04T01:36:28;9.30;99.90
21568;DHT22;10944;42.590;12.630;2023-01-04T01:38:54;9.30;99.90
21568;DHT22;10944;42.590;12.630;2023-01-04T01:41:32;9.50;99.90
21568;DHT22;10944;42.590;12.630;2023-01-04T06:06:36;9.50;99.90
21568;DHT22;10944;42.590;12.630;2023-01-04T06:12:21;9.60;99.90
21568;DHT22;10944;42.590;12.630;2023-01-04T06:14:47;9.50;99.90
21568;DHT22;10944;42.590;12.630;2023-01-04T06:17:12;9.50;99.90
21568;DHT22;10944;42.590;12.630;2023-01-04T06:19:38;9.50;99.90
21568;DHT22;10944;42.590;12.630;2023-01-04T06:22:04;9.50;99.90
21568;DHT22;10944;42.590;12.630;2023-01-04T06:24:30;9.50;99.90
21568;DHT22;10944;42.590;12.630;2023-01-04T06:26:55;9.60;99.90
21568;DHT22;10944;42.590;12.630;2023-01-04T06:29:21;9.60;99.90
21568;DHT22;10944;42.590;12.630;2023-01-04T06:31:47;9.60;99.90
21568;DHT22;10944;42.590;12.630;2023-01-04T06:34:13;9.60;99.90
21568;DHT22;10944;42.590;12.630;2023-01-04T06:36:39;9.50;99.90
21568;DHT22;10944;42.590;12.630;2023-01-04T06:39:06;9.50;99.90
21568;DHT22;10944;42.590;12.630;2023-01-04T06:41:32;9.50;99.90
21568;DHT22;10944;42.590;12.630;2023-01-04T06:43:58;9.60;99.90
21568;DHT22;10944;42.590;12.630;2023-01-04T06:46:23;9.50;99.90
21568;DHT22;10944;42.590;12.630;2023-01-04T06:51:58;9.60;99.90
21568;DHT22;10944;42.590;12.630;2023-01-04T06:54:24;9.60;99.90
21568;DHT22;10944;42.590;12.630;2023-01-04T06:56:49;9.70;99.90
21568;DHT22;10944;42.590;12.630;2023-01-04T06:59:15;9.70;99.90
21568;DHT22;10944;42.590;12.630;2023-01-04T07:01:41;9.70;99.90
21568;DHT22;10944;42.590;12.630;2023-01-04T07:04:06;9.60;99.90
21568;DHT22;10944;42.590;12.630;2023-01-04T07:06:32;9.60;99.90
21568;DHT22;10944;42.590;12.630;2023-01-04T07:08:58;9.60;99.90
21568;DHT22;10944;42.590;12.630;2023-01-04T07:11:23;9.60;99.90
21568;DHT22;10944;42.590;12.630;2023-01-04T07:13:49;9.60;99.90
21568;DHT22;10944;42.590;12.630;2023-01-04T07:16:17;9.60;99.90
21568;DHT22;10944;42.590;12.630;2023-01-04T07:18:42;9.70;99.90
21568;DHT22;10944;42.590;12.630;2023-01-04T07:21:08;9.80;99.90
21568;DHT22;10944;42.590;12.630;2023-01-04T07:23:34;9.80;99.90
21568;DHT22;10944;42.590;12.630;2023-01-04T07:26:00;9.80;99.90
21568;DHT22;10944;42.590;12.630;2023-01-04T07:28:27;9.80;99.90
21568;DHT22;10944;42.590;12.630;2023-01-04T07:31:11;9.80;99.90
21568;DHT22;10944;42.590;12.630;2023-01-04T07:33:36;9.80;99.90
21568;DHT22;10944;42.590;12.630;2023-01-04T07:36:04;9.90;99.90
21568;DHT22;10944;42.590;12.630;2023-01-04T07:38:30;9.90;99.90
21568;DHT22;10944;42.590;12.630;2023-01-04T07:40:55;9.90;99.90
21568;DHT22;10944;42.590;12.630;2023-01-04T07:43:21;9.90;99.90
21568;DHT22;10944;42.590;12.630;2023-01-04T07:45:47;10.00;99.90
21568;DHT22;10944;42.590;12.630;2023-01-04T07:48:13;10.00;99.90
21568;DHT22;10944;42.590;12.630;2023-01-04T07:50:38;10.10;99.90
21568;DHT22;10944;42.590;12.630;2023-01-04T07:53:04;10.20;99.90
21568;DHT22;10944;42.590;12.630;2023-01-04T07:55:30;10.30;99.90
21568;DHT22;10944;42.590;12.630;2023-01-04T07:57:55;10.30;99.90
21568;DHT22;10944;42.590;12.630;2023-01-04T08:00:21;10.30;99.90
21568;DHT22;10944;42.590;12.630;2023-01-04T08:02:48;10.40;99.90
21568;DHT22;10944;42.590;12.630;2023-01-04T08:05:14;10.40;99.90
21568;DHT22;10944;42.590;12.630;2023-01-04T08:07:40;10.50;99.90
21568;DHT22;10944;42.590;12.630;2023-01-04T08:10:06;10.50;99.90
21568;DHT22;10944;42.590;12.630;2023-01-04T08:12:32;10.60;99.90
21568;DHT22;10944;42.590;12.630;2023-01-04T08:14:57;10.60;99.90
21568;DHT22;10944;42.590;12.630;2023-01-04T08:17:23;10.60;99.90
21568;DHT22;10944;42.590;12.630;2023-01-04T08:19:48;10.60;99.90
21568;DHT22;10944;42.590;12.630;2023-01-04T08:22:14;10.60;99.90
21568;DHT22;10944;42.590;12.630;2023-01-04T08:24:40;10.70;99.90
21568;DHT22;10944;42.590;12.630;2023-01-04T08:27:06;10.70;99.90
21568;DHT22;10944;42.590;12.630;2023-01-04T08:29:32;10.70;99.90
21568;DHT22;10944;42.590;12.630;2023-01-04T08:31:58;10.70;99.90
21568;DHT22;10944;42.590;12.630;2023-01-04T08:34:24;10.80;99.90
21568;DHT22;10944;42.590;12.630;2023-01-04T08:36:50;10.80;99.90
21568;DHT22;10944;42.590;12.630;2023-01-04T08:39:18;10.90;99.90
21568;DHT22;10944;42.590;12.630;2023-01-04T08:41:44;10.90;99.90
21568;DHT22;10944;42.590;12.630;2023-01-04T08:44:20;11.00;99.90
21568;DHT22;10944;42.590;12.630;2023-01-04T08:46:47;11.10;99.90
21568;DHT22;10944;42.590;12.630;2023-01-04T08:49:13;11.10;99.90
21568;DHT22;10944;42.590;12.630;2023-01-04T08:51:39;11.10;99.90
21568;DHT22;10944;42.590;12.630;2023-01-04T08:54:05;11.10;99.90
21568;DHT22;10944;42.590;12.630;2023-01-04T08:56:31;11.10;99.90
21568;DHT22;10944;42.590;12.630;2023-01-04T08:58:56;11.20;99.90
21568;DHT22;10944;42.590;12.630;2023-01-04T09:01:22;11.20;99.90
21568;DHT22;10944;42.590;12.630;2023-01-04T09:03:48;11.20;99.90
21568;DHT22;10944;42.590;12.630;2023-01-04T09:06:15;11.20;99.90
21568;DHT22;10944;42.590;12.630;2023-01-04T09:08:42;11.20;99.90
21568;DHT22;10944;42.590;12.630;2023-01-04T09:11:14;11.20;99.90
21568;DHT22;10944;42.590;12.630;2023-01-04T09:13:40;11.10;99.90
21568;DHT22;10944;42.590;12.630;2023-01-04T09:16:09;11.00;99.90
21568;DHT22;10944;42.590;12.630;2023-01-04T09:18:35;10.90;99.90
21568;DHT22;10944;42.590;12.630;2023-01-04T09:21:12;10.90;99.90
21568;DHT22;10944;42.590;12.630;2023-01-04T09:23:39;10.80;99.90
21568;DHT22;10944;42.590;12.630;2023-01-04T09:26:06;10.80;99.90
21568;DHT22;10944;42.590;12.630;2023-01-04T09:28:31;10.70;99.90
21568;DHT22;10944;42.590;12.630;2023-01-04T09:30:57;10.80;99.90
21568;DHT22;10944;42.590;12.630;2023-01-04T09:33:23;10.90;99.90
21568;DHT22;10944;42.590;12.630;2023-01-04T09:35:49;10.80;99.90
21568;DHT22;10944;42.590;12.630;2023-01-04T09:38:14;10.80;99.90
21568;DHT22;10944;42.590;12.630;2023-01-04T09:41:00;10.70;99.90
21568;DHT22;10944;42.590;12.630;2023-01-04T09:43:51;10.70;99.90
21568;DHT22;10944;42.590;12.630;2023-01-04T09:49:34;10.70;99.90
21568;DHT22;10944;42.590;12.630;2023-01-04T09:52:21;10.80;99.90
21568;DHT22;10944;42.590;12.630;2023-01-04T09:54:57;10.70;99.90
21568;DHT22;10944;42.590;12.630;2023-01-04T09:57:32;10.80;99.90
21568;DHT22;10944;42.590;12.630;2023-01-04T10:00:20;10.80;99.90
21568;DHT22;10944;42.590;12.630;2023-01-04T10:02:59;10.80;99.90
21568;DHT22;10944;42.590;12.630;2023-01-04T10:05:31;10.90;99.90
21568;DHT22;10944;42.590;12.630;2023-01-04T10:07:57;10.90;99.90
21568;DHT22;10944;42.590;12.630;2023-01-04T10:16:29;11.00;99.90
21568;DHT22;10944;42.590;12.630;2023-01-04T10:24:04;11.20;99.90
21568;DHT22;10944;42.590;12.630;2023-01-04T10:26:49;11.30;99.90
21568;DHT22;10944;42.590;12.630;2023-01-04T10:32:48;11.20;99.90
21568;DHT22;10944;42.590;12.630;2023-01-04T10:34:53;11.30;99.90
21568;DHT22;10944;42.590;12.630;2023-01-04T10:37:22;11.50;99.90
21568;DHT22;10944;42.590;12.630;2023-01-04T10:39:54;11.50;99.90
21568;DHT22;10944;42.590;12.630;2023-01-04T10:42:38;11.60;99.90
21568;DHT22;10944;42.590;12.630;2023-01-04T10:45:23;11.70;99.90
21568;DHT22;10944;42.590;12.630;2023-01-04T10:48:01;11.90;99.90
21568;DHT22;10944;42.590;12.630;2023-01-04T10:50:38;11.90;99.90
21568;DHT22;10944;42.590;12.630;2023-01-04T10:53:37;12.00;99.90
21568;DHT22;10944;42.590;12.630;2023-01-04T10:56:31;11.90;99.90
21568;DHT22;10944;42.590;12.630;2023-01-04T10:59:33;12.00;99.90
21568;DHT22;10944;42.590;12.630;2023-01-04T11:04:43;12.00;99.90
21568;DHT22;10944;42.590;12.630;2023-01-04T11:07:22;11.90;99.90
21568;DHT22;10944;42.590;12.630;2023-01-04T11:10:12;12.00;99.90
21568;DHT22;10944;42.590;12.630;2023-01-04T11:12:40;12.00;99.90
21568;DHT22;10944;42.590;12.630;2023-01-04T11:15:06;12.10;99.90
21568;DHT22;10944;42.590;12.630;2023-01-04T11:17:32;12.10;99.90
21568;DHT22;10944;42.590;12.630;2023-01-04T11:19:59;12.10;99.90
21568;DHT22;10944;42.590;12.630;2023-01-04T11:25:06;12.20;99.90
21568;DHT22;10944;42.590;12.630;2023-01-04T11:27:41;12.30;99.90
21568;DHT22;10944;42.590;12.630;2023-01-04T11:30:16;12.40;99.90
21568;DHT22;10944;42.590;12.630;2023-01-04T11:33:07;12.40;99.90
21568;DHT22;10944;42.590;12.630;2023-01-04T11:35:42;12.50;99.90
21568;DHT22;10944;42.590;12.630;2023-01-04T11:38:20;12.40;99.90
21568;DHT22;10944;42.590;12.630;2023-01-04T11:41:07;12.50;99.90
21568;DHT22;10944;42.590;12.630;2023-01-04T11:43:40;12.50;99.90
21568;DHT22;10944;42.590;12.630;2023-01-04T11:46:22;12.50;99.90
21568;DHT22;10944;42.590;12.630;2023-01-04T11:48:50;12.60;99.90
21568;DHT22;10944;42.590;12.630;2023-01-04T11:56:27;12.70;99.90
21568;DHT22;10944;42.590;12.630;2023-01-04T11:59:13;12.80;99.90
21568;DHT22;10944;42.590;12.630;2023-01-04T12:01:45;12.90;99.90
21568;DHT22;10944;42.590;12.630;2023-01-04T12:04:25;12.90;99.90
21568;DHT22;10944;42.590;12.630;2023-01-04T12:09:22;12.90;99.90
21568;DHT22;10944;42.590;12.630;2023-01-04T12:11:51;13.00;99.90
21568;DHT22;10944;42.590;12.630;2023-01-04T12:19:31;13.20;99.90
21568;DHT22;10944;42.590;12.630;2023-01-04T12:22:00;13.20;99.90
21568;DHT22;10944;42.590;12.630;2023-01-04T12:24:29;13.20;99.90
21568;DHT22;10944;42.590;12.630;2023-01-04T12:26:56;13.10;99.90
21568;DHT22;10944;42.590;12.630;2023-01-04T12:31:49;13.10;99.90
21568;DHT22;10944;42.590;12.630;2023-01-04T12:36:54;13.20;99.90
21568;DHT22;10944;42.590;12.630;2023-01-04T12:57:44;13.50;99.90
21568;DHT22;10944;42.590;12.630;2023-01-04T13:00:12;13.50;99.90
21568;DHT22;10944;42.590;12.630;2023-01-04T13:07:52;13.50;99.90
21568;DHT22;10944;42.590;12.630;2023-01-04T13:10:33;13.40;99.90
21568;DHT22;10944;42.590;12.630;2023-01-04T13:18:49;13.50;99.90
21568;DHT22;10944;42.590;12.630;2023-01-04T13:21:31;13.40;99.90
21568;DHT22;10944;42.590;12.630;2023-01-04T13:24:00;13.40;99.90
21568;DHT22;10944;42.590;12.630;2023-01-04T13:26:43;13.50;99.90
21568;DHT22;10944;42.590;12.630;2023-01-04T13:32:00;13.40;99.90
21568;DHT22;10944;42.590;12.630;2023-01-04T13:34:30;13.40;99.90
21568;DHT22;10944;42.590;12.630;2023-01-04T13:39:47;13.40;99.90
21568;DHT22;10944;42.590;12.630;2023-01-04T13:47:16;13.40;99.90
21568;DHT22;10944;42.590;12.630;2023-01-04T13:49:42;13.40;99.90
21568;DHT22;10944;42.590;12.630;2023-01-04T13:52:22;13.30;99.90
21568;DHT22;10944;42.590;12.630;2023-01-04T13:54:48;13.30;99.90
21568;DHT22;10944;42.590;12.630;2023-01-04T13:57:18;13.30;99.90
21568;DHT22;10944;42.590;12.630;2023-01-04T13:59:49;13.30;99.90
21568;DHT22;10944;42.590;12.630;2023-01-04T14:02:19;13.30;99.90
21568;DHT22;10944;42.590;12.630;2023-01-04T14:04:47;13.30;99.90
21568;DHT22;10944;42.590;12.630;2023-01-04T14:07:21;13.20;99.90
21568;DHT22;10944;42.590;12.630;2023-01-04T14:09:53;13.30;99.90
21568;DHT22;10944;42.590;12.630;2023-01-04T14:12:23;13.30;99.90
21568;DHT22;10944;42.590;12.630;2023-01-04T14:14:56;13.20;99.90
21568;DHT22;10944;42.590;12.630;2023-01-04T14:17:47;13.20;99.90
21568;DHT22;10944;42.590;12.630;2023-01-04T14:30:55;13.10;99.90
21568;DHT22;10944;42.590;12.630;2023-01-04T14:33:43;13.00;99.90
21568;DHT22;10944;42.590;12.630;2023-01-04T14:41:33;12.90;99.90
21568;DHT22;10944;42.590;12.630;2023-01-04T14:46:29;12.80;99.90
21568;DHT22;10944;42.590;12.630;2023-01-04T14:48:56;12.80;99.90
21568;DHT22;10944;42.590;12.630;2023-01-04T14:51:32;12.80;99.90
21568;DHT22;10944;42.590;12.630;2023-01-04T14:53:58;12.80;99.90
21568;DHT22;10944;42.590;12.630;2023-01-04T14:56:24;12.80;99.90
21568;DHT22;10944;42.590;12.630;2023-01-04T14:58:50;12.70;99.90
21568;DHT22;10944;42.590;12.630;2023-01-04T15:01:15;12.70;99.90
21568;DHT22;10944;42.590;12.630;2023-01-04T15:03:41;12.60;99.90
21568;DHT22;10944;42.590;12.630;2023-01-04T15:06:07;12.50;99.90
21568;DHT22;10944;42.590;12.630;2023-01-04T15:08:33;12.50;99.90
21568;DHT22;10944;42.590;12.630;2023-01-04T15:10:59;12.50;99.90
21568;DHT22;10944;42.590;12.630;2023-01-04T15:13:24;12.40;99.90
21568;DHT22;10944;42.590;12.630;2023-01-04T15:15:50;12.40;99.90
21568;DHT22;10944;42.590;12.630;2023-01-04T15:18:16;12.30;99.90
21568;DHT22;10944;42.590;12.630;2023-01-04T15:20:42;12.20;99.90
21568;DHT22;10944;42.590;12.630;2023-01-04T15:23:08;12.20;99.90
21568;DHT22;10944;42.590;12.630;2023-01-04T15:25:37;12.10;99.90
21568;DHT22;10944;42.590;12.630;2023-01-04T15:28:02;12.00;99.90
21568;DHT22;10944;42.590;12.630;2023-01-04T15:30:28;11.80;99.90
21568;DHT22;10944;42.590;12.630;2023-01-04T15:32:54;11.70;99.90
21568;DHT22;10944;42.590;12.630;2023-01-04T15:35:20;11.60;99.90
21568;DHT22;10944;42.590;12.630;2023-01-04T15:37:46;11.60;99.90
21568;DHT22;10944;42.590;12.630;2023-01-04T15:40:14;11.50;99.90
21568;DHT22;10944;42.590;12.630;2023-01-04T15:42:40;11.50;99.90
21568;DHT22;10944;42.590;12.630;2023-01-04T15:45:25;11.40;99.90
21568;DHT22;10944;42.590;12.630;2023-01-04T15:47:51;11.20;99.90
21568;DHT22;10944;42.590;12.630;2023-01-04T15:50:18;11.10;99.90
21568;DHT22;10944;42.590;12.630;2023-01-04T15:52:44;10.90;99.90
21568;DHT22;10944;42.590;12.630;2023-01-04T15:55:10;10.90;99.90
21568;DHT22;10944;42.590;12.630;2023-01-04T15:57:36;10.90;99.90
21568;DHT22;10944;42.590;12.630;2023-01-04T16:00:03;11.00;99.90
21568;DHT22;10944;42.590;12.630;2023-01-04T16:02:29;10.90;99.90
21568;DHT22;10944;42.590;12.630;2023-01-04T16:04:56;10.80;99.90
21568;DHT22;10944;42.590;12.630;2023-01-04T16:07:22;10.80;99.90
21568;DHT22;10944;42.590;12.630;2023-01-04T16:09:49;10.70;99.90
21568;DHT22;10944;42.590;12.630;2023-01-04T16:12:15;10.60;99.90
21568;DHT22;10944;42.590;12.630;2023-01-04T16:14:59;10.50;99.90
21568;DHT22;10944;42.590;12.630;2023-01-04T16:17:25;10.50;99.90
21568;DHT22;10944;42.590;12.630;2023-01-04T16:19:50;10.40;99.90
21568;DHT22;10944;42.590;12.630;2023-01-04T16:22:16;10.50;99.90
21568;DHT22;10944;42.590;12.630;2023-01-04T16:24:42;10.50;99.90
21568;DHT22;10944;42.590;12.630;2023-01-04T16:27:07;10.50;99.90
21568;DHT22;10944;42.590;12.630;2023-01-04T16:29:34;10.60;99.90
21568;DHT22;10944;42.590;12.630;2023-01-04T16:32:00;10.50;99.90
21568;DHT22;10944;42.590;12.630;2023-01-04T16:34:26;10.40;99.90
21568;DHT22;10944;42.590;12.630;2023-01-04T16:36:52;10.40;99.90
21568;DHT22;10944;42.590;12.630;2023-01-04T16:39:18;10.40;99.90
21568;DHT22;10944;42.590;12.630;2023-01-04T16:41:44;10.30;99.90
21568;DHT22;10944;42.590;12.630;2023-01-04T16:44:10;10.30;99.90
21568;DHT22;10944;42.590;12.630;2023-01-04T16:46:38;10.30;99.90
21568;DHT22;10944;42.590;12.630;2023-01-04T16:49:05;10.30;99.90
21568;DHT22;10944;42.590;12.630;2023-01-04T16:51:33;10.20;99.90
21568;DHT22;10944;42.590;12.630;2023-01-04T16:54:05;10.20;99.90
21568;DHT22;10944;42.590;12.630;2023-01-04T16:56:31;10.20;99.90
21568;DHT22;10944;42.590;12.630;2023-01-04T16:58:57;10.10;99.90
21568;DHT22;10944;42.590;12.630;2023-01-04T17:01:26;10.10;99.90
21568;DHT22;10944;42.590;12.630;2023-01-04T17:03:58;10.00;99.90
21568;DHT22;10944;42.590;12.630;2023-01-04T17:06:25;10.00;99.90
21568;DHT22;10944;42.590;12.630;2023-01-04T17:08:53;9.90;99.90
21568;DHT22;10944;42.590;12.630;2023-01-04T17:11:22;9.90;99.90
21568;DHT22;10944;42.590;12.630;2023-01-04T17:13:48;9.90;99.90
21568;DHT22;10944;42.590;12.630;2023-01-04T17:16:14;9.90;99.90
21568;DHT22;10944;42.590;12.630;2023-01-04T17:18:40;9.90;99.90
21568;DHT22;10944;42.590;12.630;2023-01-04T17:21:09;9.90;99.90
21568;DHT22;10944;42.590;12.630;2023-01-04T17:23:37;9.80;99.90
21568;DHT22;10944;42.590;12.630;2023-01-04T17:26:05;9.80;99.90
21568;DHT22;10944;42.590;12.630;2023-01-04T17:28:32;9.80;99.90
21568;DHT22;10944;42.590;12.630;2023-01-04T17:30:57;9.80;99.90
21568;DHT22;10944;42.590;12.630;2023-01-04T17:33:23;9.80;99.90
21568;DHT22;10944;42.590;12.630;2023-01-04T17:35:49;9.80;99.90
21568;DHT22;10944;42.590;12.630;2023-01-04T17:38:15;9.80;99.90
21568;DHT22;10944;42.590;12.630;2023-01-04T17:40:41;9.80;99.90
21568;DHT22;10944;42.590;12.630;2023-01-04T17:43:08;9.80;99.90
21568;DHT22;10944;42.590;12.630;2023-01-04T17:45:33;9.90;99.90
21568;DHT22;10944;42.590;12.630;2023-01-04T17:47:59;9.90;99.90
21568;DHT22;10944;42.590;12.630;2023-01-04T17:50:25;9.90;99.90
21568;DHT22;10944;42.590;12.630;2023-01-04T17:52:51;9.90;99.90
21568;DHT22;10944;42.590;12.630;2023-01-04T17:55:18;9.90;99.90
21568;DHT22;10944;42.590;12.630;2023-01-04T17:57:44;9.90;99.90
21568;DHT22;10944;42.590;12.630;2023-01-04T18:00:10;9.80;99.90
21568;DHT22;10944;42.590;12.630;2023-01-04T18:02:41;9.90;99.90
21568;DHT22;10944;42.590;12.630;2023-01-04T18:05:07;9.90;99.90
21568;DHT22;10944;42.590;12.630;2023-01-04T18:07:34;9.80;99.90
21568;DHT22;10944;42.590;12.630;2023-01-04T18:10:00;9.70;99.90
21568;DHT22;10944;42.590;12.630;2023-01-04T18:12:26;9.70;99.90
21568;DHT22;10944;42.590;12.630;2023-01-04T18:14:55;9.60;99.90
21568;DHT22;10944;42.590;12.630;2023-01-04T18:17:20;9.50;99.90
21568;DHT22;10944;42.590;12.630;2023-01-04T18:19:47;9.50;99.90
21568;DHT22;10944;42.590;12.630;2023-01-04T18:22:14;9.50;99.90
21568;DHT22;10944;42.590;12.630;2023-01-04T18:24:40;9.40;99.90
21568;DHT22;10944;42.590;12.630;2023-01-04T18:27:10;9.30;99.90
21568;DHT22;10944;42.590;12.630;2023-01-04T18:29:37;9.20;99.90
21568;DHT22;10944;42.590;12.630;2023-01-04T18:32:03;9.20;99.90
21568;DHT22;10944;42.590;12.630;2023-01-04T18:34:28;9.20;99.90
21568;DHT22;10944;42.590;12.630;2023-01-04T18:36:54;9.20;99.90
21568;DHT22;10944;42.590;12.630;2023-01-04T18:39:25;9.10;99.90
21568;DHT22;10944;42.590;12.630;2023-01-04T18:41:54;9.10;99.90
21568;DHT22;10944;42.590;12.630;2023-01-04T18:44:20;9.10;99.90
21568;DHT22;10944;42.590;12.630;2023-01-04T18:46:45;9.00;99.90
21568;DHT22;10944;42.590;12.630;2023-01-04T18:49:11;9.00;99.90
21568;DHT22;10944;42.590;12.630;2023-01-04T18:51:37;9.00;99.90
21568;DHT22;10944;42.590;12.630;2023-01-04T18:54:02;9.00;99.90
21568;DHT22;10944;42.590;12.630;2023-01-04T18:56:28;9.00;99.90
21568;DHT22;10944;42.590;12.630;2023-01-04T18:58:54;8.90;99.90
21568;DHT22;10944;42.590;12.630;2023-01-04T19:01:20;8.90;99.90
21568;DHT22;10944;42.590;12.630;2023-01-04T19:03:48;8.80;99.90
21568;DHT22;10944;42.590;12.630;2023-01-04T19:06:17;8.80;99.90
21568;DHT22;10944;42.590;12.630;2023-01-04T19:08:44;8.70;99.90
21568;DHT22;10944;42.590;12.630;2023-01-04T19:11:10;8.70;99.90
21568;DHT22;10944;42.590;12.630;2023-01-04T19:13:37;8.70;99.90
21568;DHT22;10944;42.590;12.630;2023-01-04T19:16:07;8.70;99.90
21568;DHT22;10944;42.590;12.630;2023-01-04T19:18:33;8.60;99.90
21568;DHT22;10944;42.590;12.630;2023-01-04T19:21:03;8.60;99.90
21568;DHT22;10944;42.590;12.630;2023-01-04T19:23:29;8.60;99.90
21568;DHT22;10944;42.590;12.630;2023-01-04T19:25:55;8.50;99.90
21568;DHT22;10944;42.590;12.630;2023-01-04T19:28:20;8.50;99.90
21568;DHT22;10944;42.590;12.630;2023-01-04T19:30:46;8.40;99.90
21568;DHT22;10944;42.590;12.630;2023-01-04T19:33:12;8.30;99.90
21568;DHT22;10944;42.590;12.630;2023-01-04T19:35:43;8.30;99.90
21568;DHT22;10944;42.590;12.630;2023-01-04T19:38:09;8.20;99.90
21568;DHT22;10944;42.590;12.630;2023-01-04T19:40:35;8.30;99.90
21568;DHT22;10944;42.590;12.630;2023-01-04T19:43:01;8.30;99.90
21568;DHT22;10944;42.590;12.630;2023-01-04T19:45:27;8.30;99.90
21568;DHT22;10944;42.590;12.630;2023-01-04T19:47:52;8.30;99.90
21568;DHT22;10944;42.590;12.630;2023-01-04T19:50:18;8.30;99.90
21568;DHT22;10944;42.590;12.630;2023-01-04T19:52:44;8.30;99.90
21568;DHT22;10944;42.590;12.630;2023-01-04T19:55:10;8.30;99.90
21568;DHT22;10944;42.590;12.630;2023-01-04T19:57:36;8.30;99.90
21568;DHT22;10944;42.590;12.630;2023-01-04T20:00:04;8.30;99.90
21568;DHT22;10944;42.590;12.630;2023-01-04T20:02:31;8.30;99.90
21568;DHT22;10944;42.590;12.630;2023-01-04T20:04:57;8.30;99.90
21568;DHT22;10944;42.590;12.630;2023-01-04T20:07:23;8.30;99.90
21568;DHT22;10944;42.590;12.630;2023-01-04T20:09:49;8.30;99.90
21568;DHT22;10944;42.590;12.630;2023-01-04T20:12:16;8.30;99.90
21568;DHT22;10944;42.590;12.630;2023-01-04T20:14:42;8.20;99.90
21568;DHT22;10944;42.590;12.630;2023-01-04T20:17:08;8.20;99.90
21568;DHT22;10944;42.590;12.630;2023-01-04T20:19:34;8.20;99.90
21568;DHT22;10944;42.590;12.630;2023-01-04T20:21:59;8.10;99.90
21568;DHT22;10944;42.590;12.630;2023-01-04T20:24:25;8.10;99.90
21568;DHT22;10944;42.590;12.630;2023-01-04T20:26:51;8.10;99.90
21568;DHT22;10944;42.590;12.630;2023-01-04T20:29:17;8.10;99.90
21568;DHT22;10944;42.590;12.630;2023-01-04T20:31:42;8.00;99.90
21568;DHT22;10944;42.590;12.630;2023-01-04T20:34:09;7.90;99.90
21568;DHT22;10944;42.590;12.630;2023-01-04T20:36:34;8.00;99.90
21568;DHT22;10944;42.590;12.630;2023-01-04T20:39:04;7.90;99.90
21568;DHT22;10944;42.590;12.630;2023-01-04T20:41:30;8.00;99.90
21568;DHT22;10944;42.590;12.630;2023-01-04T20:43:57;7.90;99.90
21568;DHT22;10944;42.590;12.630;2023-01-04T20:46:26;7.90;99.90
21568;DHT22;10944;42.590;12.630;2023-01-04T20:48:54;7.90;99.90
21568;DHT22;10944;42.590;12.630;2023-01-04T20:51:24;7.90;99.90
21568;DHT22;10944;42.590;12.630;2023-01-04T20:53:53;7.90;99.90
21568;DHT22;10944;42.590;12.630;2023-01-04T20:56:21;7.80;99.90
21568;DHT22;10944;42.590;12.630;2023-01-04T20:58:48;7.70;99.90
21568;DHT22;10944;42.590;12.630;2023-01-04T21:01:15;7.80;99.90
21568;DHT22;10944;42.590;12.630;2023-01-04T21:03:41;7.70;99.90
21568;DHT22;10944;42.590;12.630;2023-01-04T21:06:11;7.70;99.90
21568;DHT22;10944;42.590;12.630;2023-01-04T21:08:38;7.70;99.90
21568;DHT22;10944;42.590;12.630;2023-01-04T21:11:05;7.70;99.90
21568;DHT22;10944;42.590;12.630;2023-01-04T21:13:31;7.60;99.90
21568;DHT22;10944;42.590;12.630;2023-01-04T21:15:57;7.60;99.90
21568;DHT22;10944;42.590;12.630;2023-01-04T21:18:24;7.60;99.90
21568;DHT22;10944;42.590;12.630;2023-01-04T21:20:50;7.60;99.90
21568;DHT22;10944;42.590;12.630;2023-01-04T21:23:18;7.70;99.90
21568;DHT22;10944;42.590;12.630;2023-01-04T21:25:44;7.70;99.90
21568;DHT22;10944;42.590;12.630;2023-01-04T21:28:10;7.80;99.90
21568;DHT22;10944;42.590;12.630;2023-01-04T21:30:43;7.70;99.90
21568;DHT22;10944;42.590;12.630;2023-01-04T21:33:10;7.70;99.90
21568;DHT22;10944;42.590;12.630;2023-01-04T21:35:37;7.70;99.90
21568;DHT22;10944;42.590;12.630;2023-01-04T21:38:04;7.70;99.90